Time;durP1;ratioP1;P1;durP2;ratioP2;P2;SDS_P1;SDS_P2;PMS_P1;PMS_P2;Temp;Humidity;BMP_temperature;BMP_pressure;BME280_temperature;BME280_humidity;BME280_pressure;Samples;Min_cycle;Max_cycle;Signal;HPM_P1;HPM_P2
2021/11/18 00:01:16;;;;;;;31.92;12.13;;;;;;;-0.58;91.17;100248.44;5013164;28;20080;-67
2021/11/18 00:03:42;;;;;;;27.77;11.40;;;;;;;-0.56;90.92;100240.41;5014676;28;20056;-66
2021/11/18 00:06:08;;;;;;;29.85;11.65;;;;;;;-0.55;90.50;100247.41;5013385;28;20061;-67
2021/11/18 00:08:34;;;;;;;29.88;13.85;;;;;;;-0.80;90.59;100211.34;5014395;28;20046;-68
2021/11/18 00:11:04;;;;;;;26.67;13.55;;;;;;;-0.63;90.44;100239.78;5012834;28;20056;-67
2021/11/18 00:13:32;;;;;;;28.55;11.93;;;;;;;-0.54;90.27;100243.84;5013704;28;20045;-69
2021/11/18 00:15:59;;;;;;;28.02;11.75;;;;;;;-0.53;90.43;100250.88;5013317;28;20042;-66
2021/11/18 00:18:28;;;;;;;33.08;13.85;;;;;;;-0.58;90.29;100237.81;5013289;28;20053;-68
2021/11/18 00:20:59;;;;;;;27.75;10.70;;;;;;;-0.56;90.18;100245.69;5013813;28;20038;-68
2021/11/18 00:23:29;;;;;;;33.33;14.07;;;;;;;-0.57;89.95;100239.53;4996198;28;20061;-67
2021/11/18 00:25:55;;;;;;;28.45;11.10;;;;;;;-0.53;90.24;100249.09;5014275;28;20041;-66
2021/11/18 00:28:21;;;;;;;30.83;12.90;;;;;;;-0.64;90.43;100218.63;5028863;28;20057;-68
2021/11/18 00:30:47;;;;;;;33.03;13.90;;;;;;;-0.74;90.97;100211.03;5028734;28;20050;-67
2021/11/18 00:33:13;;;;;;;31.30;13.88;;;;;;;-0.61;91.34;100237.94;4995540;28;20462;-68
2021/11/18 00:35:40;;;;;;;36.22;15.23;;;;;;;-0.64;91.38;100238.06;5028513;28;20042;-67
2021/11/18 00:39:03;;;;;;;31.38;13.02;;;;;;;-0.59;91.30;100227.25;5011842;28;20164;-67
2021/11/18 00:41:31;;;;;;;35.03;15.73;;;;;;;-0.69;90.82;100220.63;5012388;28;20073;-66
2021/11/18 00:43:57;;;;;;;28.27;12.48;;;;;;;-0.69;89.70;100223.28;5010386;28;20077;-67
2021/11/18 00:46:23;;;;;;;23.88;10.75;;;;;;;-0.62;88.25;100216.75;5011615;28;20084;-67
2021/11/18 00:48:49;;;;;;;24.23;9.80;;;;;;;-0.65;86.36;100219.56;5011748;28;20050;-66
2021/11/18 00:51:18;;;;;;;25.83;11.32;;;;;;;-0.58;87.04;100223.69;5011786;28;20052;-66
2021/11/18 00:53:48;;;;;;;25.95;9.70;;;;;;;-0.61;87.68;100213.19;5013116;28;20144;-66
2021/11/18 00:56:20;;;;;;;24.85;11.70;;;;;;;-0.59;87.01;100220.13;4996130;28;20080;-67
2021/11/18 00:58:47;;;;;;;;;;;;;;;-0.63;87.16;100221.19;5013259;28;20054;-67
2021/11/18 01:01:15;;;;;;;26.08;12.40;;;;;;;-0.65;87.26;100219.56;5014048;28;20011;-71
2021/11/18 01:03:42;;;;;;;29.35;10.77;;;;;;;-0.69;87.08;100184.31;5032123;28;20060;-69
2021/11/18 01:06:08;;;;;;;27.30;12.30;;;;;;;-0.65;86.32;100204.50;4995868;28;20038;-67
2021/11/18 01:08:34;;;;;;;23.58;11.55;;;;;;;-0.89;85.71;100169.25;4995283;28;20477;-69
2021/11/18 01:11:06;;;;;;;25.13;10.82;;;;;;;-0.82;85.84;100175.16;4994635;28;20467;-68
2021/11/18 01:13:33;;;;;;;25.02;8.20;;;;;;;-0.73;85.50;100188.91;5011010;28;20042;-67
2021/11/18 01:16:03;;;;;;;24.27;11.45;;;;;;;-0.82;85.52;100183.13;5027016;28;20542;-68
2021/11/18 01:18:30;;;;;;;26.17;14.63;;;;;;;-0.76;84.92;100201.44;5027152;28;20054;-66
2021/11/18 01:20:58;;;;;;;25.48;11.85;;;;;;;-1.02;84.91;100157.47;5010950;28;20066;-69
2021/11/18 01:23:28;;;;;;;22.17;10.70;;;;;;;-0.85;84.22;100181.44;4978223;28;20046;-69
2021/11/18 01:25:54;;;;;;;21.48;9.98;;;;;;;-0.82;83.79;100181.31;5026877;28;20042;-66
2021/11/18 01:28:23;;;;;;;24.60;10.18;;;;;;;-0.92;83.07;100163.22;5011372;28;20092;-69
2021/11/18 01:30:50;;;;;;;22.92;8.88;;;;;;;-0.89;83.04;100177.22;4995171;28;20538;-70
2021/11/18 01:33:19;;;;;;;25.40;10.63;;;;;;;-0.86;83.26;100185.03;5044547;28;20044;-66
2021/11/18 01:35:48;;;;;;;27.02;11.38;;;;;;;-0.90;83.24;100194.06;5013009;28;20511;-66
2021/11/18 01:38:15;;;;;;;23.00;9.68;;;;;;;-0.83;82.91;100194.69;4979262;28;20042;-66
2021/11/18 01:40:48;;;;;;;22.45;9.50;;;;;;;-1.03;82.40;100156.56;5011593;28;20483;-66
2021/11/18 01:43:29;;;;;;;23.20;9.95;;;;;;;-0.88;83.22;100186.88;5010180;28;20068;-66
2021/11/18 01:45:57;;;;;;;23.52;11.15;;;;;;;-1.66;82.88;100056.75;5043464;28;20056;-66
2021/11/18 01:48:22;;;;;;;22.38;9.43;;;;;;;-0.99;83.51;100173.22;5026856;28;20045;-67
2021/11/18 01:50:50;;;;;;;23.20;10.63;;;;;;;-1.00;81.80;100184.78;4977804;28;20065;-66
2021/11/18 01:53:20;;;;;;;22.90;9.45;;;;;;;-1.06;82.60;100174.41;5010161;28;20440;-67
2021/11/18 01:55:46;;;;;;;22.75;9.30;;;;;;;-1.02;81.92;100178.69;5009856;28;20046;-67
2021/11/18 01:58:13;;;;;;;21.48;9.63;;;;;;;-1.03;81.80;100175.13;5026110;28;20208;-68
2021/11/18 02:00:59;;;;;;;20.25;9.23;;;;;;;-1.06;81.44;100175.28;5010023;28;20495;-66
2021/11/18 02:03:27;;;;;;;23.00;10.32;;;;;;;-1.06;80.99;100177.06;5012352;28;20073;-65
2021/11/18 02:06:21;;;;;;;22.25;9.65;;;;;;;-1.11;80.64;100176.41;5006891;28;20054;-67
2021/11/18 02:08:47;;;;;;;19.77;8.70;;;;;;;-1.18;80.04;100167.84;5028432;28;20065;-69
2021/11/18 02:11:31;;;;;;;21.48;9.23;;;;;;;-1.39;79.89;100132.50;5012642;28;20057;-67
2021/11/18 02:13:57;;;;;;;22.05;10.23;;;;;;;-1.14;80.12;100173.88;5011569;28;20562;-67
2021/11/18 02:16:25;;;;;;;21.73;9.07;;;;;;;-1.17;79.78;100164.28;5009971;28;20508;-68
2021/11/18 02:18:52;;;;;;;21.27;9.18;;;;;;;-1.14;79.91;100179.19;5043331;28;20049;-68
2021/11/18 02:21:19;;;;;;;19.17;9.38;;;;;;;-1.38;78.64;100141.31;5026244;28;20045;-67
2021/11/18 02:23:54;;;;;;;20.58;8.35;;;;;;;-1.33;77.61;100156.06;5026097;28;20526;-67
2021/11/18 02:26:23;;;;;;;20.40;8.38;;;;;;;-1.28;77.97;100162.06;5009493;28;20424;-68
2021/11/18 02:28:51;;;;;;;19.05;7.95;;;;;;;-1.33;77.52;100164.03;5009681;28;20494;-71
2021/11/18 02:31:30;;;;;;;18.10;7.38;;;;;;;-1.35;77.54;100165.91;4993924;28;20054;-68
2021/11/18 02:33:57;;;;;;;18.02;7.70;;;;;;;-1.42;77.02;100159.13;5028430;28;20152;-68
2021/11/18 02:36:24;;;;;;;21.85;7.78;;;;;;;-1.72;76.58;100121.47;4995412;28;20068;-69
2021/11/18 02:38:50;;;;;;;20.67;8.30;;;;;;;-1.45;77.10;100156.59;5028084;28;20037;-67
2021/11/18 02:41:21;;;;;;;21.17;9.45;;;;;;;-1.49;76.90;100145.25;5013151;28;20057;-67
2021/11/18 02:43:48;;;;;;;23.98;9.70;;;;;;;-1.54;76.54;100139.25;5011667;28;20088;-69
2021/11/18 02:46:15;;;;;;;24.38;9.50;;;;;;;-1.45;76.66;100159.25;5044131;28;20465;-68
2021/11/18 02:48:42;;;;;;;22.25;9.90;;;;;;;-1.53;76.38;100150.75;5026103;28;20510;-65
2021/11/18 02:51:11;;;;;;;20.75;8.80;;;;;;;-1.82;76.70;100113.03;5010361;28;20064;-66
2021/11/18 02:53:38;;;;;;;21.33;9.00;;;;;;;-1.66;77.41;100142.41;4993166;28;20076;-67
2021/11/18 02:56:04;;;;;;;21.27;7.75;;;;;;;-1.64;76.89;100145.03;5009807;28;20073;-66
2021/11/18 02:58:36;;;;;;;20.98;8.13;;;;;;;-1.88;76.76;100092.06;5009752;28;20050;-67
2021/11/18 03:01:11;;;;;;;24.20;9.13;;;;;;;-1.86;76.62;100111.44;5026062;28;20041;-67
2021/11/18 03:03:37;;;;;;;24.10;8.45;;;;;;;-1.70;76.99;100138.16;5042591;28;20050;-66
2021/11/18 03:06:03;;;;;;;21.48;9.70;;;;;;;-1.66;76.96;100123.00;5026077;28;20064;-67
2021/11/18 03:08:29;;;;;;;25.25;9.68;;;;;;;-1.61;76.76;100139.56;5014641;28;20057;-66
2021/11/18 03:10:58;;;;;;;25.73;9.10;;;;;;;-1.71;76.60;100124.06;5029749;28;20065;-68
2021/11/18 03:13:26;;;;;;;20.00;8.50;;;;;;;-1.63;76.95;100128.19;4996909;28;20049;-69
2021/11/18 03:15:57;;;;;;;24.55;8.55;;;;;;;-1.61;76.54;100126.31;5013259;28;20057;-68
2021/11/18 03:18:23;;;;;;;28.67;9.07;;;;;;;-1.63;76.69;100117.59;4996847;28;20060;-67
2021/11/18 03:20:50;;;;;;;27.38;10.65;;;;;;;-1.63;77.32;100120.25;5029526;28;20145;-68
2021/11/18 03:23:17;;;;;;;21.92;9.57;;;;;;;-1.65;77.35;100124.72;5012835;28;20095;-68
2021/11/18 03:25:44;;;;;;;23.80;10.05;;;;;;;-1.81;77.21;100104.16;5030187;28;20522;-69
2021/11/18 03:28:20;;;;;;;21.27;9.18;;;;;;;-1.78;77.39;100096.09;4997656;28;20045;-67
2021/11/18 03:30:47;;;;;;;24.05;8.95;;;;;;;-1.84;77.38;100085.72;5013021;28;20049;-69
2021/11/18 03:33:20;;;;;;;32.85;11.93;;;;;;;-1.96;76.89;100079.16;5013057;28;20077;-68
2021/11/18 03:35:46;;;;;;;24.55;10.93;;;;;;;-1.77;77.19;100104.88;5012585;28;20084;-68
2021/11/18 03:38:13;;;;;;;24.52;9.77;;;;;;;-1.75;77.87;100092.47;5012875;28;20046;-67
2021/11/18 03:40:40;;;;;;;24.67;10.75;;;;;;;-1.71;77.79;100100.22;5012761;28;20057;-67
2021/11/18 03:43:09;;;;;;;20.77;8.85;;;;;;;-1.72;77.41;100108.22;5029150;28;20065;-69
2021/11/18 03:45:37;;;;;;;21.95;8.45;;;;;;;-1.82;77.05;100102.44;5012330;28;20530;-70
2021/11/18 03:48:07;;;;;;;25.52;11.77;;;;;;;-1.90;76.71;100103.66;5012488;28;20053;-67
2021/11/18 03:50:36;;;;;;;25.02;10.52;;;;;;;-1.90;77.55;100101.91;4996270;28;20208;-67
2021/11/18 03:53:03;;;;;;;27.45;12.65;;;;;;;-1.96;76.85;100096.81;5045343;28;20041;-69
2021/11/18 03:55:29;;;;;;;32.72;14.63;;;;;;;-1.99;77.20;100096.94;5028593;28;20122;-69
2021/11/18 03:57:57;;;;;;;33.88;13.50;;;;;;;-2.07;76.92;100076.06;4997601;28;20049;-71
2021/11/18 04:00:29;;;;;;;30.70;12.60;;;;;;;-2.08;76.30;100087.59;4999985;28;20088;-70
2021/11/18 04:02:57;;;;;;;30.40;14.48;;;;;;;-2.13;77.11;100091.34;5016499;28;20052;-69
2021/11/18 04:05:38;;;;;;;27.13;10.93;;;;;;;-2.22;77.39;100079.31;5032311;28;20049;-73
2021/11/18 04:08:05;;;;;;;32.28;15.82;;;;;;;-2.20;76.82;100075.66;5013249;28;20107;-68
2021/11/18 04:10:33;;;;;;;32.42;12.35;;;;;;;-2.31;76.88;100055.84;5028178;28;20130;-67
2021/11/18 04:13:00;;;;;;;33.13;14.65;;;;;;;-2.35;77.40;100054.25;5012140;28;20042;-68
2021/11/18 04:15:27;;;;;;;30.02;12.93;;;;;;;-2.56;76.78;100017.13;5011956;28;20076;-70
2021/11/18 04:17:57;;;;;;;27.35;11.32;;;;;;;-2.21;77.10;100083.69;5011746;28;20050;-68
2021/11/18 04:20:29;;;;;;;34.33;15.20;;;;;;;-2.38;76.89;100049.06;4996812;28;20160;-67
2021/11/18 04:22:56;;;;;;;34.58;13.80;;;;;;;-2.32;77.15;100070.88;5011590;28;20052;-69
2021/11/18 04:25:26;;;;;;;29.98;13.38;;;;;;;-2.29;77.03;100069.91;4978894;28;20535;-69
2021/11/18 04:27:52;;;;;;;;;;;;;;;-2.23;77.55;100074.94;5013431;28;20034;-68
2021/11/18 04:30:21;;;;;;;31.88;12.15;;;;;;;-2.17;77.31;100073.84;5011451;28;19921;-68
2021/11/18 04:33:07;;;;;;;32.22;12.93;;;;;;;-2.43;77.26;100020.13;5011675;28;20045;-69
2021/11/18 04:35:33;;;;;;;33.22;12.48;;;;;;;-2.17;77.10;100058.81;5028097;28;20472;-68
2021/11/18 04:37:59;;;;;;;30.13;13.63;;;;;;;-2.41;76.91;100020.94;4994980;28;20089;-68
2021/11/18 04:40:25;;;;;;;32.33;13.73;;;;;;;-2.27;77.11;100047.72;5027984;28;20487;-69
2021/11/18 04:42:52;;;;;;;34.33;14.65;;;;;;;-2.25;77.39;100056.47;4994984;28;20096;-68
2021/11/18 04:45:22;;;;;;;31.67;14.73;;;;;;;-2.45;77.49;100024.59;5011526;28;20065;-69
2021/11/18 04:47:48;;;;;;;36.30;14.30;;;;;;;-2.28;77.54;100048.63;5044339;28;20134;-68
2021/11/18 04:50:15;;;;;;;32.75;15.85;;;;;;;-2.26;77.35;100044.16;5027859;28;20123;-68
2021/11/18 04:52:41;;;;;;;33.83;15.50;;;;;;;-2.38;77.33;100036.69;5027749;28;20045;-68
2021/11/18 04:55:09;;;;;;;32.65;14.95;;;;;;;-2.38;77.26;100046.41;5011231;28;20073;-73
2021/11/18 04:57:36;;;;;;;31.80;13.45;;;;;;;-2.39;77.63;100040.25;5010850;28;20394;-67
2021/11/18 05:00:06;;;;;;;34.17;14.57;;;;;;;-2.38;77.77;100039.31;5011468;28;20057;-69
2021/11/18 05:02:34;;;;;;;34.05;14.15;;;;;;;-2.32;77.89;100035.59;5027962;28;20099;-67
2021/11/18 05:05:00;;;;;;;31.75;14.52;;;;;;;-2.41;77.99;100034.19;4976430;28;20133;-69
2021/11/18 05:07:26;;;;;;;37.90;15.15;;;;;;;-2.40;77.80;100030.59;5010895;28;20061;-69
2021/11/18 05:09:52;;;;;;;40.45;18.20;;;;;;;-2.40;77.69;100024.44;5010612;28;20038;-69
2021/11/18 05:12:18;;;;;;;38.00;16.33;;;;;;;-2.63;78.04;99990.91;5012467;28;20721;-69
2021/11/18 05:14:44;;;;;;;38.97;17.33;;;;;;;-2.53;78.11;100018.75;5011810;28;20403;-69
2021/11/18 05:17:10;;;;;;;40.33;16.95;;;;;;;-2.53;78.27;100021.41;4980710;28;20038;-69
2021/11/18 05:19:36;;;;;;;38.90;17.75;;;;;;;-2.51;78.84;100019.56;4994944;28;20046;-72
2021/11/18 05:22:03;;;;;;;46.10;19.75;;;;;;;-2.59;78.38;100003.13;5013726;28;20030;-69
2021/11/18 05:24:29;;;;;;;43.42;19.00;;;;;;;-2.50;78.50;100030.09;5014631;28;20042;-71
2021/11/18 05:26:58;;;;;;;45.45;16.52;;;;;;;-2.49;78.47;100025.66;5011250;28;20602;-71
2021/11/18 05:29:24;;;;;;;45.30;20.38;;;;;;;-2.93;78.68;99960.31;4994242;28;20192;-71
2021/11/18 05:31:50;;;;;;;43.90;21.63;;;;;;;-2.54;78.95;100017.03;4978387;28;20113;-72
2021/11/18 05:34:38;;;;;;;51.70;21.52;;;;;;;-2.80;78.96;99979.22;5011882;28;20377;-70
2021/11/18 05:37:04;;;;;;;52.45;20.45;;;;;;;-2.56;78.92;100024.16;4979036;28;20045;-74
2021/11/18 05:39:34;;;;;;;62.35;21.27;;;;;;;-2.71;78.73;100021.19;5011386;28;20104;-71
2021/11/18 05:42:00;;;;;;;52.63;22.35;;;;;;;-3.04;78.84;99969.56;5026532;28;20053;-72
2021/11/18 05:44:26;;;;;;;59.35;23.13;;;;;;;-2.81;78.98;100009.25;5006214;28;20042;-73
2021/11/18 05:46:53;;;;;;;55.80;21.27;;;;;;;-2.84;78.55;100025.25;4989878;28;20054;-72
2021/11/18 05:49:20;;;;;;;71.05;23.48;;;;;;;-3.02;78.24;100004.78;4973700;28;20635;-75
2021/11/18 05:51:48;;;;;;;44.80;21.15;;;;;;;-2.92;78.28;100011.44;4997396;28;20125;-72
2021/11/18 05:54:22;;;;;;;53.92;18.13;;;;;;;-2.91;77.67;100013.16;4997290;28;20038;-72
2021/11/18 05:56:48;;;;;;;58.03;21.67;;;;;;;-2.94;77.77;100013.28;4988956;28;20214;-73
2021/11/18 05:59:13;;;;;;;57.42;22.20;;;;;;;-3.18;77.75;99981.53;5002515;28;20079;-70
2021/11/18 06:01:40;;;;;;;53.72;22.85;;;;;;;-2.97;78.06;100008.09;5024848;28;20048;-71
2021/11/18 06:04:09;;;;;;;44.47;18.33;;;;;;;-3.33;77.99;99947.72;5026438;28;20088;-71
2021/11/18 06:06:40;;;;;;;46.20;17.65;;;;;;;-3.01;77.82;100001.19;4991994;28;20045;-72
2021/11/18 06:09:07;;;;;;;66.13;20.73;;;;;;;-3.05;77.94;100004.88;5000040;28;20049;-71
2021/11/18 06:11:37;;;;;;;55.90;22.67;;;;;;;-3.05;77.69;100004.88;4998740;28;20432;-71
2021/11/18 06:14:09;;;;;;;52.42;18.60;;;;;;;-3.08;78.22;99989.97;5042394;28;20072;-71
2021/11/18 06:16:35;;;;;;;50.47;22.45;;;;;;;-2.96;77.77;100009.84;5008656;28;20093;-70
2021/11/18 06:19:03;;;;;;;46.42;18.20;;;;;;;-2.95;78.09;100006.25;4993141;28;20054;-73
2021/11/18 06:21:41;;;;;;;41.85;18.13;;;;;;;-2.97;78.11;99992.22;4992831;28;20042;-71
2021/11/18 06:24:08;;;;;;;47.13;19.25;;;;;;;-2.88;77.73;99999.81;5009461;28;20042;-70
2021/11/18 06:26:40;;;;;;;46.10;18.45;;;;;;;-3.03;77.58;99998.63;4992637;28;20148;-71
2021/11/18 06:29:08;;;;;;;45.95;17.00;;;;;;;-3.00;77.19;100002.91;5008331;28;20056;-71
2021/11/18 06:31:35;;;;;;;52.55;17.85;;;;;;;-3.13;76.93;99996.38;5008604;28;20049;-70
2021/11/18 06:34:02;;;;;;;43.60;19.25;;;;;;;-3.37;77.11;99955.81;5008913;28;20058;-71
2021/11/18 06:36:28;;;;;;;42.70;21.90;;;;;;;-3.19;77.78;99981.59;5007000;28;20513;-71
2021/11/18 06:38:55;;;;;;;41.92;20.15;;;;;;;-3.26;77.52;99975.66;5009183;28;20065;-71
2021/11/18 06:41:23;;;;;;;40.90;19.08;;;;;;;-3.20;77.83;99986.00;4992706;28;20034;-70
2021/11/18 06:43:49;;;;;;;38.95;13.95;;;;;;;-3.13;77.79;99980.50;5002939;28;20046;-72
2021/11/18 06:46:16;;;;;;;39.22;13.88;;;;;;;-3.06;77.61;99984.66;5001448;28;20033;-72
2021/11/18 06:48:43;;;;;;;38.78;15.05;;;;;;;-3.17;77.63;99977.97;5048231;28;20233;-70
2021/11/18 06:51:16;;;;;;;40.90;17.67;;;;;;;-3.12;77.97;99982.22;5046359;28;20045;-68
2021/11/18 06:53:45;;;;;;;45.53;19.00;;;;;;;-3.15;78.17;99978.75;5010417;28;20084;-70
2021/11/18 06:56:17;;;;;;;43.28;19.95;;;;;;;-3.13;78.53;99967.28;4995244;28;20041;-71
2021/11/18 06:58:43;;;;;;;40.33;13.82;;;;;;;-3.16;78.76;99955.03;4994683;28;20043;-71
2021/11/18 07:01:10;;;;;;;47.35;19.30;;;;;;;-3.11;78.33;99961.00;4981274;28;20046;-73
2021/11/18 07:03:39;;;;;;;45.97;21.15;;;;;;;-3.13;78.77;99959.34;5020430;28;20422;-69
2021/11/18 07:06:12;;;;;;;41.38;16.95;;;;;;;-3.07;78.79;99959.09;4996411;28;20058;-69
2021/11/18 07:08:39;;;;;;;40.67;16.83;;;;;;;-3.11;78.00;99939.00;5012669;28;20103;-69
2021/11/18 07:11:06;;;;;;;39.63;16.95;;;;;;;-3.05;78.58;99946.69;5011540;28;20519;-70
2021/11/18 07:13:33;;;;;;;43.08;20.52;;;;;;;-3.02;78.75;99962.47;5011989;28;20041;-70
2021/11/18 07:16:00;;;;;;;41.33;18.98;;;;;;;-3.27;78.84;99920.22;5003524;28;20034;-71
2021/11/18 07:18:28;;;;;;;41.33;17.25;;;;;;;-2.97;78.94;99961.34;5011626;28;20082;-69
2021/11/18 07:20:54;;;;;;;44.80;20.58;;;;;;;-3.05;78.61;99938.78;5027405;28;20041;-72
2021/11/18 07:23:23;;;;;;;41.05;17.23;;;;;;;-3.33;78.71;99884.28;5009965;28;20041;-70
2021/11/18 07:25:52;;;;;;;43.67;18.92;;;;;;;-2.86;78.83;99952.13;5005399;28;20076;-70
2021/11/18 07:28:21;;;;;;;42.05;21.02;;;;;;;-2.99;78.47;99938.53;4995344;28;20058;-67
2021/11/18 07:30:48;;;;;;;43.42;17.63;;;;;;;-3.12;78.35;99902.91;5011606;28;20100;-70
2021/11/18 07:33:15;;;;;;;35.70;14.77;;;;;;;-2.82;78.64;99943.16;4961445;28;20046;-74
2021/11/18 07:35:41;;;;;;;40.03;14.95;;;;;;;-2.78;78.30;99932.41;5023070;28;20044;-70
2021/11/18 07:38:09;;;;;;;38.67;13.90;;;;;;;-2.82;78.12;99922.84;4994298;28;20052;-71
2021/11/18 07:40:39;;;;;;;41.05;17.33;;;;;;;-2.98;77.89;99898.81;5027704;28;20034;-70
2021/11/18 07:43:15;;;;;;;41.58;15.52;;;;;;;-3.06;77.57;99870.94;4996361;28;20337;-69
2021/11/18 07:45:55;;;;;;;41.20;16.83;;;;;;;-2.65;77.43;99923.97;4997817;28;20398;-71
2021/11/18 07:48:47;;;;;;;39.28;18.50;;;;;;;-2.80;77.70;99915.72;5001691;28;20455;-70
2021/11/18 07:51:19;;;;;;;48.22;16.88;;;;;;;-2.70;77.88;99927.69;4997521;28;20480;-70
2021/11/18 07:53:47;;;;;;;42.92;17.80;;;;;;;-2.68;77.11;99931.09;5014234;28;20069;-72
2021/11/18 07:56:15;;;;;;;38.10;19.30;;;;;;;-2.77;77.18;99915.63;5015281;28;20041;-70
2021/11/18 07:58:40;;;;;;;41.70;19.65;;;;;;;-2.81;77.30;99900.78;4976666;28;20393;-70
2021/11/18 08:01:07;;;;;;;35.40;14.98;;;;;;;-2.62;77.05;99930.03;4995425;28;20038;-71
2021/11/18 08:03:35;;;;;;;41.05;17.05;;;;;;;-2.53;76.94;99923.47;5026347;28;20041;-70
2021/11/18 08:06:22;;;;;;;36.95;16.58;;;;;;;-2.61;76.20;99899.97;5008988;28;20038;-71
2021/11/18 08:08:56;;;;;;;39.20;15.88;;;;;;;-2.47;76.49;99908.22;4995407;28;20046;-71
2021/11/18 08:11:34;;;;;;;35.80;16.13;;;;;;;-2.48;75.52;99903.84;4994761;28;20065;-71
2021/11/18 08:14:00;;;;;;;34.72;15.38;;;;;;;-2.91;75.48;99843.88;5010860;28;20490;-72
2021/11/18 08:16:27;;;;;;;34.13;13.73;;;;;;;-2.39;74.65;99899.97;5012112;28;20029;-71
2021/11/18 08:18:59;;;;;;;35.35;17.42;;;;;;;-2.44;72.95;99886.06;4996506;28;20056;-71
2021/11/18 08:21:26;;;;;;;36.55;16.33;;;;;;;-2.65;72.58;99834.03;4995593;28;20069;-71
2021/11/18 08:23:56;;;;;;;35.15;15.10;;;;;;;-2.29;71.53;99880.13;4994302;28;20429;-71
2021/11/18 08:26:25;;;;;;;40.08;20.83;;;;;;;-2.55;71.36;99856.53;5010046;28;20041;-73
2021/11/18 08:28:52;;;;;;;38.35;18.42;;;;;;;-2.34;70.55;99884.75;5005560;28;20750;-71
2021/11/18 08:31:19;;;;;;;41.72;16.88;;;;;;;-2.33;70.77;99883.81;4993569;28;20525;-72
2021/11/18 08:34:14;;;;;;;34.13;15.23;;;;;;;-2.24;70.70;99885.22;5001405;28;20061;-71
2021/11/18 08:36:42;;;;;;;31.65;12.73;;;;;;;-2.48;70.60;99836.84;4977718;28;20045;-71
2021/11/18 08:39:10;;;;;;;34.28;15.57;;;;;;;-2.23;71.04;99877.22;4994803;28;20050;-71
2021/11/18 08:41:37;;;;;;;30.85;13.18;;;;;;;-2.15;71.26;99876.88;4994359;28;20567;-71
2021/11/18 08:44:04;;;;;;;37.08;18.58;;;;;;;-2.19;71.55;99876.16;5008556;28;20081;-72
2021/11/18 08:46:30;;;;;;;36.10;17.17;;;;;;;-2.37;71.91;99839.88;5021042;28;20038;-70
2021/11/18 08:49:01;;;;;;;33.92;14.45;;;;;;;-2.19;72.14;99870.88;4991891;28;20045;-71
2021/11/18 08:51:36;;;;;;;36.22;17.05;;;;;;;-2.36;71.84;99840.75;4996796;28;20045;-72
2021/11/18 08:54:06;;;;;;;32.60;14.65;;;;;;;-2.17;72.14;99862.00;4996391;28;20056;-72
2021/11/18 08:56:33;;;;;;;36.17;17.85;;;;;;;-2.46;71.58;99817.28;5010671;28;20049;-73
2021/11/18 08:59:00;;;;;;;37.22;16.85;;;;;;;-2.17;71.19;99851.41;5011815;28;20418;-73
2021/11/18 09:01:37;;;;;;;35.92;16.88;;;;;;;-2.01;70.71;99847.13;5009942;28;20084;-76
2021/11/18 09:04:07;;;;;;;42.45;18.70;;;;;;;-1.93;69.02;99847.69;5004457;28;20137;-72
2021/11/18 09:06:34;;;;;;;35.92;18.55;;;;;;;-1.93;68.41;99855.63;5006400;28;20141;-76
2021/11/18 09:09:00;;;;;;;38.85;13.15;;;;;;;-0.95;65.84;99845.81;4994097;28;20049;-74
2021/11/18 09:11:29;;;;;;;33.72;15.38;;;;;;;-1.25;64.83;99835.69;5080171;23;20014;-74
2021/11/18 09:13:57;;;;;;;33.28;17.25;;;;;;;-1.45;65.17;99817.22;4988255;28;20057;-74
2021/11/18 09:16:27;;;;;;;34.92;15.95;;;;;;;-1.53;65.54;99837.94;4993833;28;20040;-77
2021/11/18 09:19:15;;;;;;;33.88;16.50;;;;;;;-1.58;65.78;99829.31;4972362;28;20385;-75
2021/11/18 09:21:42;;;;;;;35.45;15.35;;;;;;;-1.60;65.37;99825.91;4949639;28;20050;-76
2021/11/18 09:24:22;;;;;;;35.47;15.20;;;;;;;-1.65;66.05;99827.88;4982200;28;20046;-76
2021/11/18 09:26:52;;;;;;;35.67;18.45;;;;;;;-1.76;66.31;99815.97;4973746;28;20610;-70
2021/11/18 09:29:19;;;;;;;35.28;18.23;;;;;;;-1.92;67.26;99809.66;4987635;28;20141;-76
2021/11/18 09:32:08;;;;;;;31.90;14.25;;;;;;;-1.88;67.00;99802.44;4995156;28;20066;-76
2021/11/18 09:34:39;;;;;;;39.00;18.42;;;;;;;-2.00;68.10;99795.91;4991284;28;20051;-74
2021/11/18 09:37:05;;;;;;;33.55;13.98;;;;;;;-2.02;68.27;99800.41;4988447;28;20586;-76
2021/11/18 09:39:33;;;;;;;35.67;18.20;;;;;;;-1.99;68.26;99794.97;4959021;28;20125;-77
2021/11/18 09:42:15;;;;;;;39.60;16.95;;;;;;;-1.95;68.42;99801.84;4985837;28;20042;-72
2021/11/18 09:44:51;;;;;;;;;;;;;;;-1.89;67.88;99806.88;5005937;28;20043;-72
2021/11/18 09:47:40;;;;;;;;;;;;;;;-1.97;68.11;99806.38;4959529;28;19921;-73
2021/11/18 09:50:30;;;;;;;42.97;18.73;;;;;;;-1.98;67.96;99805.47;5015981;28;20406;-69
2021/11/18 09:53:22;;;;;;;39.38;19.23;;;;;;;-1.95;68.34;99809.78;4961036;28;20570;-74
2021/11/18 09:56:12;;;;;;;34.70;17.35;;;;;;;-2.00;67.70;99801.19;4992278;28;20049;-72
2021/11/18 09:59:12;;;;;;;39.75;16.63;;;;;;;-2.00;67.26;99806.50;4961931;28;20068;-72
2021/11/18 10:02:05;;;;;;;40.00;17.88;;;;;;;-2.08;67.86;99792.75;4991836;28;20642;-73
2021/11/18 10:04:46;;;;;;;35.90;15.30;;;;;;;-1.99;67.13;99781.72;5009496;28;20041;-73
2021/11/18 10:07:45;;;;;;;36.22;19.67;;;;;;;-1.97;66.89;99791.34;4992432;28;20621;-65
2021/11/18 10:10:31;;;;;;;34.95;15.60;;;;;;;-1.81;66.23;99780.03;5021253;28;20127;-67
2021/11/18 10:13:07;;;;;;;31.85;16.52;;;;;;;-1.51;65.67;99773.28;5027139;28;20203;-66
2021/11/18 10:15:37;;;;;;;35.88;18.38;;;;;;;-1.80;65.82;99758.75;5012256;28;20477;-67
2021/11/18 10:18:30;;;;;;;33.80;13.73;;;;;;;-1.53;64.78;99758.41;5012885;28;20038;-67
2021/11/18 10:21:04;;;;;;;35.53;17.08;;;;;;;-1.59;64.70;99771.94;4993473;28;20400;-67
2021/11/18 10:23:30;;;;;;;36.15;16.30;;;;;;;-1.34;63.73;99743.34;5008808;28;20460;-67
2021/11/18 10:26:00;;;;;;;34.00;19.17;;;;;;;-1.63;64.52;99725.31;4977647;28;20049;-66
2021/11/18 10:28:30;;;;;;;34.30;17.17;;;;;;;-1.44;64.42;99757.97;4994127;28;20042;-67
2021/11/18 10:31:19;;;;;;;31.50;13.43;;;;;;;-1.44;65.09;99747.34;5008999;28;20090;-66
2021/11/18 10:34:08;;;;;;;30.25;15.68;;;;;;;-1.60;65.24;99741.09;5006368;28;20117;-67
2021/11/18 10:36:43;;;;;;;35.78;16.00;;;;;;;-1.49;64.91;99722.88;4990025;28;20068;-66
2021/11/18 10:39:22;;;;;;;29.80;11.20;;;;;;;-1.65;64.68;99690.91;5021013;28;20439;-67
2021/11/18 10:41:56;;;;;;;36.10;15.95;;;;;;;-1.65;64.58;99720.06;5005103;28;20144;-66
2021/11/18 10:44:27;;;;;;;31.38;15.95;;;;;;;-2.29;65.64;99635.69;5011337;28;20044;-66
2021/11/18 10:47:09;;;;;;;35.83;16.00;;;;;;;-1.87;66.15;99701.69;4995330;28;20057;-66
2021/11/18 10:49:42;;;;;;;36.58;18.90;;;;;;;-1.82;66.00;99715.59;4992885;28;20100;-66
2021/11/18 10:52:25;;;;;;;36.72;17.83;;;;;;;-1.84;66.53;99705.97;4998285;28;20445;-69
2021/11/18 10:55:03;;;;;;;35.53;15.93;;;;;;;-1.96;66.29;99659.75;5011535;28;20072;-72
2021/11/18 10:57:32;;;;;;;31.58;13.93;;;;;;;-1.78;66.65;99688.00;5011244;28;20077;-69
2021/11/18 11:00:21;;;;;;;31.50;13.68;;;;;;;-1.98;66.39;99666.88;5015158;28;20072;-70
2021/11/18 11:02:48;;;;;;;37.13;18.33;;;;;;;-2.00;66.38;99652.88;5011073;28;20050;-70
2021/11/18 11:05:37;;;;;;;33.10;16.05;;;;;;;-2.24;66.55;99629.25;5007493;28;20049;-70
2021/11/18 11:08:23;;;;;;;37.42;19.20;;;;;;;-1.89;67.43;99687.66;5011575;28;20058;-69
2021/11/18 11:10:55;;;;;;;35.28;16.02;;;;;;;-1.98;67.12;99667.75;5010284;28;20105;-69
2021/11/18 11:14:09;;;;;;;35.92;17.00;;;;;;;-1.97;66.92;99668.63;4994761;28;20041;-71
2021/11/18 11:20:02;;;;;;;48.00;24.20;;;;;;;-2.06;68.64;99674.34;4999093;28;20053;-70
2021/11/18 11:23:10;;;;;;;33.90;16.50;;;;;;;-2.07;68.25;99656.75;5030658;28;20057;-68
2021/11/18 11:25:54;;;;;;;40.30;18.27;;;;;;;-2.07;68.50;99659.38;4992317;28;20049;-69
2021/11/18 11:28:51;;;;;;;38.72;18.33;;;;;;;-1.98;68.61;99656.28;5021171;28;20041;-71
2021/11/18 11:31:23;;;;;;;40.95;20.05;;;;;;;-2.25;69.44;99613.44;5003502;28;20100;-69
2021/11/18 11:34:07;;;;;;;40.30;16.55;;;;;;;-2.11;69.35;99645.44;5034071;28;20045;-69
2021/11/18 11:36:44;;;;;;;35.15;15.48;;;;;;;-2.10;69.21;99644.50;5049920;28;20121;-69